Time;durP1;ratioP1;P1;durP2;ratioP2;P2;SDS_P1;SDS_P2;PMS_P1;PMS_P2;Temp;Humidity;BMP_temperature;BMP_pressure;BME280_temperature;BME280_humidity;BME280_pressure;Samples;Min_cycle;Max_cycle;Signal;HPM_P1;HPM_P2
2021/01/01 00:01:58;;;;;;;5.10;4.22;;;6.80;70.30;;;;;;4993581;28;20483;-77
2021/01/01 00:04:23;;;;;;;4.60;4.10;;;6.70;70.20;;;;;;4991202;28;20029;-77
2021/01/01 00:06:50;;;;;;;5.80;4.40;;;6.70;70.20;;;;;;4987490;28;20376;-78
2021/01/01 00:09:17;;;;;;;4.93;3.67;;;6.60;70.10;;;;;;4986715;28;20030;-76
2021/01/01 00:11:47;;;;;;;4.72;4.20;;;6.60;70.10;;;;;;4983359;28;20024;-78
2021/01/01 00:14:13;;;;;;;5.63;4.50;;;6.60;70.10;;;;;;4988402;28;20053;-77
2021/01/01 00:16:44;;;;;;;5.45;4.30;;;6.60;70.00;;;;;;4979588;28;20050;-78
2021/01/01 00:19:10;;;;;;;5.35;4.63;;;6.60;69.90;;;;;;4989557;28;20022;-77
2021/01/01 00:21:36;;;;;;;5.45;4.75;;;6.50;69.80;;;;;;4986499;28;20022;-76
2021/01/01 00:24:01;;;;;;;6.00;4.43;;;6.50;69.80;;;;;;4990487;28;20021;-74
2021/01/01 00:26:27;;;;;;;6.22;4.78;;;6.50;69.80;;;;;;4991488;28;20574;-74
2021/01/01 00:28:53;;;;;;;5.25;4.43;;;6.40;69.80;;;;;;4986206;28;20074;-74
2021/01/01 00:31:23;;;;;;;6.35;5.20;;;6.40;69.90;;;;;;4995639;28;20026;-75
2021/01/01 00:33:49;;;;;;;6.25;4.75;;;6.40;69.90;;;;;;4990092;28;20026;-75
2021/01/01 00:36:16;;;;;;;5.65;4.28;;;6.30;69.90;;;;;;4991322;28;20508;-74
2021/01/01 00:38:52;;;;;;;6.15;4.68;;;6.30;69.90;;;;;;5000299;28;20061;-74
2021/01/01 00:41:31;;;;;;;5.45;4.13;;;6.30;69.80;;;;;;4995774;28;20556;-75
2021/01/01 00:43:58;;;;;;;6.00;4.57;;;6.20;69.80;;;;;;4982931;28;20184;-74
2021/01/01 00:46:24;;;;;;;5.47;4.28;;;6.20;69.90;;;;;;4995435;28;20045;-73
2021/01/01 00:48:50;;;;;;;5.32;4.65;;;6.10;70.00;;;;;;4990498;28;20138;-74
2021/01/01 00:51:36;;;;;;;6.80;4.72;;;6.10;70.10;;;;;;4988154;28;20053;-74
2021/01/01 00:54:02;;;;;;;5.70;4.53;;;6.10;70.20;;;;;;4979163;28;20029;-74
2021/01/01 00:56:29;;;;;;;6.03;4.32;;;6.10;70.40;;;;;;4994215;28;20038;-74
2021/01/01 00:58:56;;;;;;;7.25;4.97;;;6.10;70.50;;;;;;4987615;28;20053;-75
2021/01/01 01:01:24;;;;;;;6.47;5.10;;;6.10;70.70;;;;;;4994599;28;20034;-75
2021/01/01 01:03:51;;;;;;;7.32;5.57;;;6.10;70.70;;;;;;4987702;28;20030;-74
2021/01/01 01:06:17;;;;;;;6.65;4.45;;;6.20;70.90;;;;;;4988659;28;20099;-74
2021/01/01 01:08:43;;;;;;;6.15;4.82;;;6.10;70.80;;;;;;4988336;28;20121;-74
2021/01/01 01:11:09;;;;;;;6.95;4.97;;;6.10;70.80;;;;;;4994191;28;20558;-76
2021/01/01 01:13:35;;;;;;;6.65;5.70;;;6.20;70.90;;;;;;4989282;28;20129;-76
2021/01/01 01:16:00;;;;;;;6.03;4.43;;;6.10;70.90;;;;;;4985485;28;20208;-74
2021/01/01 01:18:26;;;;;;;6.32;4.78;;;6.20;71.00;;;;;;4993069;28;20033;-74
2021/01/01 01:20:52;;;;;;;6.45;5.03;;;6.20;71.10;;;;;;4983138;28;20041;-74
2021/01/01 01:23:19;;;;;;;6.78;5.00;;;6.30;71.20;;;;;;4990562;28;20063;-78
2021/01/01 01:25:45;;;;;;;6.20;5.10;;;6.30;71.20;;;;;;4988568;28;20510;-78
2021/01/01 01:28:10;;;;;;;6.85;5.25;;;6.30;71.20;;;;;;4994991;28;20045;-77
2021/01/01 01:30:35;;;;;;;5.28;4.43;;;6.30;71.10;;;;;;4994363;28;20419;-80
2021/01/01 01:33:01;;;;;;;6.88;5.40;;;6.40;71.20;;;;;;4989232;28;20045;-77
2021/01/01 01:35:26;;;;;;;8.00;5.40;;;6.40;71.20;;;;;;4989685;28;20080;-77
2021/01/01 01:37:52;;;;;;;5.57;4.57;;;6.50;71.20;;;;;;4983047;28;20462;-78
2021/01/01 01:40:18;;;;;;;7.25;5.80;;;6.50;71.20;;;;;;4982185;28;20113;-78
2021/01/01 01:42:43;;;;;;;6.43;5.10;;;6.50;71.20;;;;;;4987395;28;20514;-79
2021/01/01 01:45:10;;;;;;;6.70;5.10;;;6.50;71.20;;;;;;4981089;28;20030;-78
2021/01/01 01:47:37;;;;;;;8.77;5.68;;;6.60;71.20;;;;;;4986846;28;20045;-79
2021/01/01 01:50:03;;;;;;;6.90;5.60;;;6.60;71.10;;;;;;4980432;28;20431;-77
2021/01/01 01:52:29;;;;;;;8.18;5.30;;;6.60;71.10;;;;;;4989421;28;20122;-79
2021/01/01 01:54:54;;;;;;;7.90;5.45;;;6.60;71.00;;;;;;4985137;28;20434;-78
2021/01/01 01:57:24;;;;;;;6.78;5.05;;;6.70;71.10;;;;;;4985660;28;20525;-78
2021/01/01 01:59:54;;;;;;;6.67;5.00;;;6.60;71.10;;;;;;4980762;28;20030;-79
2021/01/01 02:02:20;;;;;;;5.80;4.85;;;6.70;71.10;;;;;;4987269;28;20040;-79
2021/01/01 02:04:47;;;;;;;6.47;4.80;;;6.70;71.10;;;;;;4988847;28;20092;-77
2021/01/01 02:07:13;;;;;;;6.15;5.03;;;6.70;71.10;;;;;;5015953;23;20499;-75
2021/01/01 02:09:39;;;;;;;5.22;4.32;;;6.70;71.00;;;;;;5008957;28;20040;-74
2021/01/01 02:12:06;;;;;;;7.18;5.32;;;6.70;71.00;;;;;;5006789;28;20025;-74
2021/01/01 02:14:31;;;;;;;5.95;4.60;;;6.80;71.00;;;;;;5010913;28;20052;-75
2021/01/01 02:16:57;;;;;;;7.22;4.88;;;6.80;71.00;;;;;;5001555;28;20113;-76
2021/01/01 02:19:22;;;;;;;6.70;5.28;;;6.80;71.00;;;;;;4993672;28;20033;-77
2021/01/01 02:21:49;;;;;;;6.25;4.75;;;6.80;71.00;;;;;;4996082;28;20499;-75
2021/01/01 02:24:14;;;;;;;5.78;4.32;;;6.80;70.90;;;;;;4990339;28;20034;-75
2021/01/01 02:26:40;;;;;;;6.95;5.07;;;6.80;70.90;;;;;;4977404;28;20049;-74
2021/01/01 02:29:05;;;;;;;6.13;4.85;;;6.80;70.80;;;;;;4989983;28;20502;-75
2021/01/01 02:31:31;;;;;;;5.75;4.22;;;6.80;70.80;;;;;;4994329;28;20141;-75
2021/01/01 02:33:56;;;;;;;6.97;5.72;;;6.80;70.70;;;;;;4989633;28;20022;-76
2021/01/01 02:36:22;;;;;;;8.45;5.38;;;6.80;70.60;;;;;;4992300;28;20034;-75
2021/01/01 02:38:48;;;;;;;6.97;5.40;;;6.80;70.50;;;;;;4994586;28;20029;-75
2021/01/01 02:41:14;;;;;;;6.28;5.60;;;6.80;70.40;;;;;;4988886;28;20033;-75
2021/01/01 02:43:39;;;;;;;7.18;5.47;;;6.80;70.30;;;;;;4989267;28;20526;-76
2021/01/01 02:46:05;;;;;;;6.38;5.28;;;6.70;70.20;;;;;;4987889;28;20122;-76
2021/01/01 02:48:30;;;;;;;6.47;5.43;;;6.70;70.30;;;;;;4994552;28;20033;-76
2021/01/01 02:50:56;;;;;;;6.43;4.97;;;6.70;70.30;;;;;;4994359;28;20038;-75
2021/01/01 02:53:21;;;;;;;6.25;4.47;;;6.70;70.40;;;;;;4988575;28;20029;-75
2021/01/01 02:55:48;;;;;;;7.60;5.68;;;6.60;70.50;;;;;;4994249;28;20053;-75
2021/01/01 02:58:14;;;;;;;7.22;5.40;;;6.60;70.50;;;;;;4986596;28;20042;-75
2021/01/01 03:00:41;;;;;;;6.97;5.13;;;6.60;70.60;;;;;;4994567;28;20511;-75
2021/01/01 03:03:08;;;;;;;7.22;6.00;;;6.60;70.70;;;;;;4992135;28;20037;-75
2021/01/01 03:05:34;;;;;;;5.97;5.13;;;6.50;70.70;;;;;;4991246;28;20049;-76
2021/01/01 03:08:00;;;;;;;6.43;5.22;;;6.60;70.90;;;;;;4997322;28;20555;-75
2021/01/01 03:10:25;;;;;;;7.32;5.60;;;6.60;71.00;;;;;;4992324;28;20094;-75
2021/01/01 03:12:51;;;;;;;6.80;5.57;;;6.60;71.00;;;;;;4994564;28;20081;-75
2021/01/01 03:15:16;;;;;;;12.40;6.18;;;6.60;71.00;;;;;;4988494;28;20136;-75
2021/01/01 03:17:42;;;;;;;7.90;5.38;;;6.60;71.00;;;;;;4995977;28;20495;-75
2021/01/01 03:20:09;;;;;;;6.80;5.22;;;6.60;71.00;;;;;;4993619;28;20034;-75
2021/01/01 03:22:36;;;;;;;6.80;5.65;;;6.60;71.00;;;;;;5010523;28;20068;-75
2021/01/01 03:25:03;;;;;;;6.07;5.28;;;6.70;71.00;;;;;;5011208;28;20060;-75
2021/01/01 03:27:28;;;;;;;7.00;5.80;;;6.70;70.90;;;;;;5009523;28;20029;-75
2021/01/01 03:29:54;;;;;;;6.38;4.75;;;6.70;70.80;;;;;;5010036;28;20038;-75
2021/01/01 03:32:19;;;;;;;8.40;5.60;;;6.60;70.70;;;;;;5010822;28;20511;-75
2021/01/01 03:34:45;;;;;;;6.47;5.25;;;6.70;70.70;;;;;;5010648;28;20136;-75
2021/01/01 03:37:10;;;;;;;7.18;5.50;;;6.60;70.70;;;;;;5007323;28;20042;-75
2021/01/01 03:39:36;;;;;;;5.70;4.80;;;6.60;70.70;;;;;;5010924;28;20062;-75
2021/01/01 03:42:01;;;;;;;7.10;5.78;;;6.70;70.80;;;;;;5011121;28;20056;-74
2021/01/01 03:44:27;;;;;;;8.02;6.18;;;6.70;70.80;;;;;;5008028;28;20122;-75
2021/01/01 03:46:52;;;;;;;6.80;5.50;;;6.60;70.90;;;;;;4991838;28;20034;-75
2021/01/01 03:49:18;;;;;;;7.68;5.45;;;6.60;70.80;;;;;;5010490;28;20510;-75
2021/01/01 03:51:43;;;;;;;7.25;6.03;;;6.60;70.90;;;;;;5009852;28;20113;-75
2021/01/01 03:54:09;;;;;;;6.68;5.25;;;6.70;70.90;;;;;;5010183;28;20026;-75
2021/01/01 03:56:34;;;;;;;7.65;5.75;;;6.70;70.70;;;;;;5010463;28;20030;-75
2021/01/01 03:59:00;;;;;;;7.20;5.10;;;6.70;70.60;;;;;;5010431;28;20495;-75
2021/01/01 04:01:25;;;;;;;8.90;5.30;;;6.70;70.50;;;;;;5010477;28;20030;-75
2021/01/01 04:03:51;;;;;;;6.82;5.03;;;6.60;70.40;;;;;;5010237;28;20026;-75
2021/01/01 04:06:16;;;;;;;8.13;5.70;;;6.60;70.30;;;;;;5009314;28;20516;-75
2021/01/01 04:08:42;;;;;;;7.45;5.50;;;6.60;70.30;;;;;;5010300;28;20033;-75
2021/01/01 04:11:07;;;;;;;8.88;6.10;;;6.60;70.30;;;;;;5010164;28;20111;-76
2021/01/01 04:13:33;;;;;;;7.88;6.60;;;6.60;70.30;;;;;;5009459;28;20036;-76
2021/01/01 04:16:01;;;;;;;6.85;5.40;;;6.50;70.30;;;;;;5010652;28;20578;-75
2021/01/01 04:18:26;;;;;;;8.65;5.20;;;6.60;70.40;;;;;;5009837;28;20030;-75
2021/01/01 04:20:52;;;;;;;6.85;5.32;;;6.50;70.40;;;;;;5006471;28;20100;-75
2021/01/01 04:23:17;;;;;;;6.20;5.43;;;6.50;70.40;;;;;;5009367;28;20034;-75
2021/01/01 04:25:46;;;;;;;6.45;5.10;;;6.50;70.50;;;;;;5009609;28;20034;-75
2021/01/01 04:28:11;;;;;;;6.28;5.15;;;6.50;70.50;;;;;;5003766;28;20034;-75
2021/01/01 04:30:37;;;;;;;7.13;5.35;;;6.40;70.50;;;;;;5007915;28;20077;-76
2021/01/01 04:33:02;;;;;;;6.75;5.63;;;6.50;70.60;;;;;;5008496;28;20030;-75
2021/01/01 04:35:28;;;;;;;6.45;5.45;;;6.40;70.50;;;;;;5004909;28;20034;-74
2021/01/01 04:37:53;;;;;;;7.25;5.30;;;6.40;70.60;;;;;;5002888;28;20101;-75
2021/01/01 04:40:19;;;;;;;6.57;5.53;;;6.50;70.60;;;;;;5007041;28;20038;-76
2021/01/01 04:42:44;;;;;;;6.60;5.13;;;6.40;70.60;;;;;;5006767;28;20475;-75
2021/01/01 04:45:10;;;;;;;7.25;5.63;;;6.50;70.70;;;;;;5005849;28;20054;-75
2021/01/01 04:47:36;;;;;;;5.45;4.57;;;6.50;70.70;;;;;;5007188;28;20061;-75
2021/01/01 04:50:03;;;;;;;6.70;5.18;;;6.40;70.70;;;;;;5005876;28;20057;-75
2021/01/01 04:52:31;;;;;;;6.65;4.95;;;6.50;70.80;;;;;;5005690;28;20169;-75
2021/01/01 04:54:59;;;;;;;6.05;4.88;;;6.40;70.80;;;;;;5007123;28;20034;-75
2021/01/01 04:57:24;;;;;;;6.65;5.05;;;6.40;70.80;;;;;;4989206;28;20038;-75
2021/01/01 04:59:50;;;;;;;6.25;5.15;;;6.50;70.90;;;;;;5008650;28;20160;-75
2021/01/01 05:02:16;;;;;;;6.85;4.93;;;6.40;70.80;;;;;;5007676;28;20045;-75
2021/01/01 05:04:48;;;;;;;6.20;5.10;;;6.40;70.90;;;;;;5006782;28;20030;-76
2021/01/01 05:07:18;;;;;;;7.30;5.20;;;6.50;71.00;;;;;;5003553;28;20176;-75
2021/01/01 05:09:44;;;;;;;6.20;4.78;;;6.50;71.00;;;;;;5006999;28;20041;-76
2021/01/01 05:12:10;;;;;;;6.65;4.97;;;6.50;71.10;;;;;;5007763;28;20030;-75
2021/01/01 05:14:37;;;;;;;5.78;4.80;;;6.50;71.20;;;;;;5006823;28;20100;-75
2021/01/01 05:17:02;;;;;;;5.97;5.05;;;6.60;71.30;;;;;;5007343;28;20095;-75
2021/01/01 05:19:38;;;;;;;6.68;5.05;;;6.60;71.30;;;;;;5006768;28;20446;-75
2021/01/01 05:22:05;;;;;;;7.53;4.93;;;6.60;71.20;;;;;;5004260;28;20041;-74
2021/01/01 05:24:42;;;;;;;6.13;4.63;;;6.60;71.10;;;;;;5003980;28;20655;-75
2021/01/01 05:27:13;;;;;;;5.75;4.55;;;6.70;71.10;;;;;;4987436;28;20045;-75
2021/01/01 05:29:43;;;;;;;5.78;4.88;;;6.70;71.00;;;;;;5004537;28;20069;-75
2021/01/01 05:32:09;;;;;;;6.22;5.25;;;6.70;71.00;;;;;;5005881;28;20113;-75
2021/01/01 05:34:43;;;;;;;7.20;5.28;;;6.70;70.90;;;;;;5004136;28;20381;-75
2021/01/01 05:37:09;;;;;;;8.02;5.90;;;6.70;70.90;;;;;;5002202;28;20034;-75
2021/01/01 05:39:35;;;;;;;5.90;4.85;;;6.70;70.80;;;;;;5007130;28;20630;-75
2021/01/01 05:42:00;;;;;;;5.90;4.57;;;6.70;70.80;;;;;;5006621;28;20109;-74
2021/01/01 05:44:28;;;;;;;6.85;5.40;;;6.70;70.80;;;;;;5005743;28;20034;-75
2021/01/01 05:46:57;;;;;;;6.22;4.85;;;6.70;70.80;;;;;;5006283;28;20368;-74
2021/01/01 05:49:25;;;;;;;6.40;4.80;;;6.70;70.80;;;;;;5006527;28;20040;-74
2021/01/01 05:52:12;;;;;;;5.82;4.50;;;6.70;70.80;;;;;;5002268;28;20168;-74
2021/01/01 05:54:46;;;;;;;6.78;5.53;;;6.80;70.80;;;;;;5009793;28;20045;-74
2021/01/01 05:57:13;;;;;;;9.48;5.80;;;6.70;70.80;;;;;;5008726;28;20034;-74
2021/01/01 05:59:44;;;;;;;7.00;5.43;;;6.70;70.80;;;;;;5006525;28;20061;-74
2021/01/01 06:02:11;;;;;;;6.20;5.18;;;6.80;71.00;;;;;;5008370;28;20042;-74
2021/01/01 06:04:38;;;;;;;6.88;5.78;;;6.80;71.00;;;;;;5006688;28;20121;-74
2021/01/01 06:07:06;;;;;;;6.40;5.38;;;6.70;70.90;;;;;;5008536;28;20042;-75
2021/01/01 06:09:33;;;;;;;7.10;5.35;;;6.80;71.00;;;;;;5009243;28;20092;-75
2021/01/01 06:12:00;;;;;;;6.05;5.25;;;6.80;71.00;;;;;;5009426;28;20018;-74
2021/01/01 06:14:46;;;;;;;6.50;5.50;;;7.00;71.10;;;;;;5008932;28;20455;-74
2021/01/01 06:17:11;;;;;;;7.43;5.20;;;6.80;70.90;;;;;;5009119;28;20037;-74
2021/01/01 06:19:52;;;;;;;7.07;5.10;;;6.80;70.80;;;;;;5008753;28;20026;-74
2021/01/01 06:22:24;;;;;;;7.03;5.75;;;6.80;70.70;;;;;;5006542;28;20398;-74
2021/01/01 06:24:58;;;;;;;6.50;5.22;;;6.80;70.60;;;;;;5009104;28;20442;-74
2021/01/01 06:27:26;;;;;;;6.53;5.53;;;6.80;70.50;;;;;;5006479;28;20038;-75
2021/01/01 06:30:07;;;;;;;7.05;5.22;;;6.80;70.50;;;;;;5002321;28;20034;-73
2021/01/01 06:32:33;;;;;;;6.65;5.13;;;6.80;70.40;;;;;;5003757;28;20112;-73
2021/01/01 06:35:13;;;;;;;7.07;5.35;;;6.70;70.30;;;;;;5007234;28;20113;-74
2021/01/01 06:37:47;;;;;;;6.07;4.60;;;6.70;70.30;;;;;;5008352;28;20080;-73
2021/01/01 06:40:22;;;;;;;7.15;5.43;;;6.70;70.20;;;;;;5009997;28;20559;-75
2021/01/01 06:43:00;;;;;;;6.15;4.93;;;6.70;70.20;;;;;;5009407;28;20037;-73
2021/01/01 06:45:40;;;;;;;6.50;4.65;;;6.60;70.10;;;;;;5003974;28;20062;-74
2021/01/01 06:48:07;;;;;;;8.10;5.15;;;6.60;70.00;;;;;;5003611;28;20092;-75
2021/01/01 06:50:35;;;;;;;6.78;4.85;;;6.60;69.80;;;;;;5005031;28;20470;-75
2021/01/01 06:53:05;;;;;;;6.80;4.88;;;6.40;69.70;;;;;;5008693;28;20515;-75
2021/01/01 06:55:35;;;;;;;8.00;5.72;;;6.40;69.70;;;;;;5005432;28;20038;-74
2021/01/01 06:58:01;;;;;;;7.15;5.07;;;6.30;69.60;;;;;;5006303;28;20073;-74
2021/01/01 07:00:45;;;;;;;6.55;4.88;;;6.30;69.60;;;;;;5008945;28;20057;-75
2021/01/01 07:03:30;;;;;;;6.97;4.78;;;6.20;69.70;;;;;;5006059;28;20053;-74
2021/01/01 07:06:02;;;;;;;5.38;4.22;;;6.20;69.90;;;;;;5000129;28;20034;-74
2021/01/01 07:08:40;;;;;;;6.35;4.82;;;6.10;70.10;;;;;;5006610;28;20049;-74
2021/01/01 07:11:11;;;;;;;6.13;4.57;;;6.10;70.30;;;;;;5006611;28;20042;-75
2021/01/01 07:13:50;;;;;;;6.10;4.78;;;6.10;70.60;;;;;;5005311;28;20036;-73
2021/01/01 07:16:21;;;;;;;5.47;4.63;;;6.10;70.80;;;;;;5006203;28;20056;-74
2021/01/01 07:18:47;;;;;;;6.28;4.25;;;6.10;70.90;;;;;;5005133;28;20034;-74
2021/01/01 07:21:18;;;;;;;6.63;4.72;;;6.10;71.10;;;;;;5005288;28;20112;-74
2021/01/01 07:23:44;;;;;;;6.38;5.13;;;6.10;71.20;;;;;;5006181;28;20160;-74
2021/01/01 07:26:10;;;;;;;7.13;5.25;;;6.10;71.20;;;;;;5005452;28;20038;-74
2021/01/01 07:28:39;;;;;;;7.70;5.28;;;6.10;71.30;;;;;;4993227;28;20133;-74
2021/01/01 07:31:04;;;;;;;6.40;4.85;;;6.10;71.30;;;;;;4997736;28;20562;-75
2021/01/01 07:33:32;;;;;;;6.32;5.15;;;6.20;71.40;;;;;;4991837;28;20113;-74
2021/01/01 07:36:04;;;;;;;5.55;4.00;;;6.20;71.40;;;;;;4992608;28;20499;-74
2021/01/01 07:38:40;;;;;;;7.20;4.90;;;6.30;71.60;;;;;;4990833;28;20041;-74
2021/01/01 07:41:05;;;;;;;8.38;5.32;;;6.30;71.60;;;;;;4996416;28;20041;-73
2021/01/01 07:43:32;;;;;;;6.15;4.70;;;6.30;71.50;;;;;;4986533;28;20048;-73
2021/01/01 07:46:08;;;;;;;7.68;5.00;;;6.30;71.50;;;;;;4993405;28;20084;-74
2021/01/01 07:48:35;;;;;;;4.97;4.03;;;6.40;71.60;;;;;;4983891;28;20549;-73
2021/01/01 07:51:08;;;;;;;6.70;4.78;;;6.40;71.50;;;;;;4993275;28;20037;-74
2021/01/01 07:53:35;;;;;;;6.63;5.38;;;6.50;71.60;;;;;;4967738;28;20406;-74
2021/01/01 07:56:04;;;;;;;7.15;4.97;;;6.50;71.50;;;;;;4993699;28;20116;-75
2021/01/01 07:58:30;;;;;;;6.15;4.60;;;6.50;71.60;;;;;;4988986;28;20038;-74
2021/01/01 08:01:10;;;;;;;6.68;4.97;;;6.60;71.60;;;;;;4987475;28;20449;-74
2021/01/01 08:03:38;;;;;;;6.07;4.38;;;6.60;72.20;;;;;;4992922;28;20033;-73
2021/01/01 08:06:05;;;;;;;6.32;4.95;;;6.60;71.50;;;;;;4993864;28;20594;-74
2021/01/01 08:08:31;;;;;;;6.85;5.07;;;6.70;71.50;;;;;;4986210;28;20109;-74
2021/01/01 08:10:58;;;;;;;7.30;5.32;;;6.60;71.30;;;;;;4993018;28;20030;-74
2021/01/01 08:15:55;;;;;;;7.57;5.63;;;6.70;71.30;;;;;;4983179;28;20038;-78
2021/01/01 08:18:26;;;;;;;6.97;4.93;;;6.70;71.30;;;;;;4986808;28;20045;-78
2021/01/01 08:20:59;;;;;;;7.95;5.90;;;6.70;71.80;;;;;;4991336;28;20038;-77
2021/01/01 08:23:26;;;;;;;6.18;4.65;;;6.70;71.30;;;;;;4988662;28;20470;-78
2021/01/01 08:25:54;;;;;;;6.25;4.55;;;6.70;71.30;;;;;;4984292;28;20116;-77
2021/01/01 08:28:24;;;;;;;6.47;4.97;;;6.70;71.40;;;;;;4980614;28;20117;-77
2021/01/01 08:30:58;;;;;;;6.88;5.30;;;6.80;71.50;;;;;;4990979;28;20037;-77
2021/01/01 08:33:36;;;;;;;7.65;5.03;;;6.80;71.50;;;;;;4988037;28;20026;-77
2021/01/01 08:36:03;;;;;;;7.07;4.90;;;6.80;71.50;;;;;;4991681;28;20041;-78
2021/01/01 08:38:29;;;;;;;8.07;5.18;;;6.80;71.50;;;;;;4989026;28;20034;-77
2021/01/01 08:40:57;;;;;;;6.45;4.97;;;6.80;71.50;;;;;;4992486;28;20198;-75
2021/01/01 08:43:24;;;;;;;6.22;4.63;;;6.90;71.60;;;;;;4985463;28;20032;-77
2021/01/01 08:45:50;;;;;;;6.95;5.53;;;6.90;71.60;;;;;;5002312;28;20037;-78
2021/01/01 08:48:16;;;;;;;7.68;5.35;;;7.00;71.70;;;;;;5007342;28;20037;-77
2021/01/01 08:50:44;;;;;;;7.85;5.57;;;6.90;71.60;;;;;;5004846;28;20042;-78
2021/01/01 08:53:10;;;;;;;7.00;5.38;;;7.00;71.70;;;;;;5006134;28;20026;-78
2021/01/01 08:55:35;;;;;;;6.30;5.38;;;7.00;71.80;;;;;;5006154;28;20076;-76
2021/01/01 08:58:11;;;;;;;6.68;5.35;;;7.00;71.80;;;;;;5006896;28;20454;-78
2021/01/01 09:00:41;;;;;;;7.35;6.00;;;7.10;71.90;;;;;;5005854;28;20045;-77
2021/01/01 09:03:07;;;;;;;8.10;6.65;;;7.10;71.80;;;;;;5005093;28;20466;-77
2021/01/01 09:05:34;;;;;;;7.22;6.05;;;7.10;71.80;;;;;;5005674;28;20053;-77
2021/01/01 09:08:10;;;;;;;7.80;6.05;;;7.20;71.90;;;;;;5007061;28;20037;-78
2021/01/01 09:10:37;;;;;;;9.65;6.47;;;7.20;72.00;;;;;;5006394;28;20033;-76
2021/01/01 09:13:24;;;;;;;7.07;6.10;;;7.30;71.90;;;;;;5006084;28;20113;-78
2021/01/01 09:16:03;;;;;;;8.13;6.13;;;7.30;71.90;;;;;;4985605;28;20049;-78
2021/01/01 09:18:30;;;;;;;7.47;6.05;;;7.40;71.80;;;;;;4988824;28;20030;-78
2021/01/01 09:21:14;;;;;;;7.65;5.88;;;7.40;71.70;;;;;;4988632;28;20065;-78
2021/01/01 09:23:41;;;;;;;8.05;5.97;;;7.40;71.70;;;;;;4989107;28;20077;-79
2021/01/01 09:26:08;;;;;;;9.48;6.32;;;7.50;71.70;;;;;;4989466;28;20466;-78
2021/01/01 09:28:35;;;;;;;8.18;6.22;;;7.40;71.50;;;;;;4989101;28;20491;-78
2021/01/01 09:31:00;;;;;;;8.80;6.53;;;7.50;71.50;;;;;;4988889;28;20038;-78
2021/01/01 09:33:26;;;;;;;8.52;5.95;;;7.50;71.40;;;;;;4988869;28;20035;-77
2021/01/01 09:35:52;;;;;;;7.85;6.18;;;7.50;71.50;;;;;;4994336;28;20057;-78
2021/01/01 09:38:18;;;;;;;8.35;6.45;;;7.50;71.50;;;;;;5009125;28;20038;-78
2021/01/01 09:40:43;;;;;;;7.35;6.28;;;7.50;71.50;;;;;;5009609;28;20541;-79
2021/01/01 09:43:09;;;;;;;8.23;6.10;;;7.60;71.60;;;;;;5008465;28;20046;-78
2021/01/01 09:45:36;;;;;;;7.22;5.22;;;7.50;72.20;;;;;;5001281;28;20130;-76
2021/01/01 09:48:03;;;;;;;8.05;6.13;;;7.60;71.80;;;;;;5008652;28;20116;-78
2021/01/01 09:50:28;;;;;;;7.80;5.45;;;7.60;71.90;;;;;;5004636;28;20038;-77
2021/01/01 09:52:54;;;;;;;6.57;5.13;;;7.70;72.10;;;;;;5008517;28;20092;-78
2021/01/01 09:55:20;;;;;;;8.02;5.57;;;7.70;72.10;;;;;;5009013;28;20029;-78
2021/01/01 09:57:48;;;;;;;7.47;5.90;;;7.70;72.20;;;;;;5008573;28;20042;-77
2021/01/01 10:00:15;;;;;;;7.82;5.95;;;7.90;72.40;;;;;;5008799;28;20034;-77
2021/01/01 10:02:41;;;;;;;8.50;5.85;;;7.90;72.40;;;;;;5008275;28;20570;-78
2021/01/01 10:05:09;;;;;;;7.38;5.80;;;7.90;72.40;;;;;;5007224;28;20046;-77
2021/01/01 10:07:34;;;;;;;7.60;6.40;;;8.00;72.40;;;;;;5008430;28;20444;-77
2021/01/01 10:10:01;;;;;;;8.55;6.30;;;8.10;72.40;;;;;;5005724;28;20125;-77
2021/01/01 10:12:26;;;;;;;7.90;6.78;;;8.10;72.30;;;;;;5008415;28;20030;-75
2021/01/01 10:14:55;;;;;;;9.82;7.65;;;8.10;72.20;;;;;;5008654;28;20701;-77
2021/01/01 10:17:22;;;;;;;8.68;6.72;;;8.20;72.00;;;;;;5008096;28;20131;-77
2021/01/01 10:19:48;;;;;;;8.63;6.75;;;8.30;71.90;;;;;;5008886;28;20022;-77
2021/01/01 10:22:13;;;;;;;7.55;5.60;;;8.30;71.80;;;;;;5007476;28;20045;-74
2021/01/01 10:24:39;;;;;;;8.35;6.63;;;8.30;71.70;;;;;;5007749;28;20157;-75
2021/01/01 10:27:05;;;;;;;7.53;6.43;;;8.40;71.60;;;;;;5008657;28;20065;-77
2021/01/01 10:29:30;;;;;;;10.32;7.60;;;8.40;71.50;;;;;;5008107;28;20045;-76
2021/01/01 10:32:02;;;;;;;8.10;6.40;;;8.40;71.40;;;;;;5001728;28;20042;-77
2021/01/01 10:34:28;;;;;;;6.70;4.97;;;8.50;71.30;;;;;;5008104;28;20030;-78
2021/01/01 10:36:53;;;;;;;7.22;5.80;;;8.40;71.20;;;;;;5007100;28;20034;-77
2021/01/01 10:39:19;;;;;;;7.45;6.20;;;8.40;71.00;;;;;;5009444;28;20030;-78
2021/01/01 10:41:47;;;;;;;7.47;6.32;;;8.40;71.00;;;;;;5012570;28;20030;-78
2021/01/01 10:44:13;;;;;;;7.20;6.22;;;8.40;70.90;;;;;;5007677;28;20037;-77
2021/01/01 10:46:38;;;;;;;9.00;6.63;;;8.40;71.10;;;;;;5008455;28;20026;-77
2021/01/01 10:49:04;;;;;;;7.75;6.32;;;8.40;71.10;;;;;;5020785;28;20034;-76
2021/01/01 10:51:29;;;;;;;7.60;6.05;;;8.40;71.20;;;;;;5008216;28;20674;-76
2021/01/01 10:53:55;;;;;;;6.38;5.25;;;8.40;71.40;;;;;;4991042;28;20037;-76
2021/01/01 10:56:25;;;;;;;8.07;6.07;;;8.40;71.50;;;;;;4992227;28;20030;-77
2021/01/01 10:58:51;;;;;;;7.88;5.80;;;8.40;71.70;;;;;;4990150;28;20042;-78
2021/01/01 11:01:21;;;;;;;6.90;5.40;;;8.50;71.80;;;;;;4993738;28;20083;-76
2021/01/01 11:03:48;;;;;;;6.60;5.70;;;8.50;71.80;;;;;;4993819;28;20129;-76
2021/01/01 11:06:14;;;;;;;7.75;6.03;;;8.50;71.70;;;;;;4994011;28;20057;-76
2021/01/01 11:08:43;;;;;;;6.28;5.32;;;8.60;71.60;;;;;;4989463;28;20035;-76
2021/01/01 11:11:11;;;;;;;6.65;5.32;;;8.60;71.50;;;;;;4982618;28;20567;-76
2021/01/01 11:13:41;;;;;;;7.00;5.53;;;8.60;71.40;;;;;;4985554;28;20050;-75
2021/01/01 12:22:21;;;;;;;8.82;5.07;;;9.10;72.20;;;;;;5007284;28;20076;-78
2021/01/01 12:24:47;;;;;;;6.40;5.55;;;9.20;72.10;;;;;;5008921;28;20038;-77
2021/01/01 12:27:21;;;;;;;6.20;4.93;;;9.20;72.10;;;;;;5008715;28;20045;-78
2021/01/01 12:29:47;;;;;;;5.85;5.00;;;9.20;72.00;;;;;;5009808;28;20044;-79
2021/01/01 12:32:14;;;;;;;6.30;4.65;;;9.20;72.10;;;;;;5010200;28;20038;-78
2021/01/01 12:34:40;;;;;;;9.68;5.57;;;9.30;72.30;;;;;;5005381;28;20030;-78
2021/01/01 12:37:06;;;;;;;7.38;5.40;;;9.40;72.30;;;;;;5009426;28;20407;-78
2021/01/01 12:39:32;;;;;;;7.95;5.63;;;9.50;72.40;;;;;;5009862;28;20061;-77
2021/01/01 12:41:58;;;;;;;7.82;5.93;;;9.50;72.40;;;;;;5010120;28;20077;-78
2021/01/01 12:44:23;;;;;;;8.05;6.45;;;9.60;72.50;;;;;;5009713;28;20034;-75
2021/01/01 12:46:51;;;;;;;9.43;6.07;;;9.60;72.50;;;;;;5004622;28;20034;-78
2021/01/01 12:49:17;;;;;;;7.63;6.13;;;9.70;72.50;;;;;;5009981;28;20044;-78
2021/01/01 12:51:42;;;;;;;8.63;5.70;;;9.70;72.50;;;;;;5008476;28;20038;-78
2021/01/01 12:54:08;;;;;;;7.63;5.30;;;9.80;72.40;;;;;;5009303;28;20509;-76
2021/01/01 12:56:35;;;;;;;7.07;5.70;;;9.80;72.20;;;;;;5009319;28;20581;-78
2021/01/01 12:59:00;;;;;;;6.50;4.93;;;9.90;72.00;;;;;;5009824;28;20030;-79
2021/01/01 13:01:26;;;;;;;6.05;5.10;;;9.90;71.80;;;;;;5009048;28;20048;-77
2021/01/01 13:03:51;;;;;;;6.47;5.15;;;10.00;71.70;;;;;;5008532;28;20057;-77
2021/01/01 13:06:17;;;;;;;6.13;4.72;;;10.10;71.60;;;;;;5006317;28;20042;-79
2021/01/01 13:08:43;;;;;;;5.80;4.30;;;10.10;71.50;;;;;;5009301;28;20034;-78
2021/01/01 13:11:09;;;;;;;5.00;4.47;;;10.10;71.40;;;;;;5009413;28;20129;-78
2021/01/01 13:13:34;;;;;;;8.00;6.07;;;10.10;71.30;;;;;;5008011;28;20034;-77
2021/01/01 13:15:59;;;;;;;6.00;4.93;;;10.00;71.20;;;;;;5009477;28;20072;-79
2021/01/01 13:18:25;;;;;;;5.97;4.63;;;10.20;71.20;;;;;;5009269;28;20070;-78
2021/01/01 13:20:50;;;;;;;5.55;4.22;;;10.10;71.00;;;;;;5000949;28;20029;-78
2021/01/01 13:23:16;;;;;;;6.10;4.72;;;10.10;70.90;;;;;;5007286;28;20121;-80
2021/01/01 13:25:41;;;;;;;5.93;4.88;;;10.10;70.80;;;;;;5009187;28;20026;-78
2021/01/01 13:28:07;;;;;;;5.43;4.57;;;10.00;70.80;;;;;;5008986;28;20060;-78
2021/01/01 13:30:32;;;;;;;6.13;4.72;;;10.00;70.70;;;;;;5008917;28;20053;-78
2021/01/01 13:32:58;;;;;;;6.47;4.32;;;10.00;70.70;;;;;;5008457;28;20053;-78
2021/01/01 13:35:23;;;;;;;5.75;4.50;;;10.00;70.70;;;;;;5005678;28;20093;-78
2021/01/01 13:37:49;;;;;;;5.20;4.20;;;10.00;70.60;;;;;;5006158;28;20034;-79
2021/01/01 13:40:15;;;;;;;5.97;4.60;;;10.00;70.70;;;;;;5002191;28;20046;-76
2021/01/01 13:42:40;;;;;;;4.72;3.85;;;10.00;70.70;;;;;;5001876;28;20396;-74
2021/01/01 13:45:06;;;;;;;5.88;4.85;;;9.90;71.00;;;;;;5006607;28;20479;-75
2021/01/01 13:47:32;;;;;;;4.93;4.30;;;9.90;71.10;;;;;;5003220;28;20395;-76
2021/01/01 13:49:57;;;;;;;5.40;4.43;;;9.90;71.10;;;;;;4999927;28;20050;-75
2021/01/01 13:52:23;;;;;;;6.53;4.70;;;9.90;71.10;;;;;;4999866;28;20029;-75
2021/01/01 13:54:48;;;;;;;6.18;4.72;;;10.00;71.20;;;;;;5000382;28;20041;-75
2021/01/01 13:57:14;;;;;;;6.28;4.40;;;10.00;71.20;;;;;;5001414;28;20125;-75
2021/01/01 13:59:40;;;;;;;6.90;4.70;;;10.00;71.20;;;;;;5001733;28;20038;-76
2021/01/01 14:02:07;;;;;;;4.93;4.28;;;10.00;71.20;;;;;;5001448;28;20117;-75
2021/01/01 14:04:33;;;;;;;5.15;4.30;;;10.10;71.20;;;;;;4997538;28;20019;-76
2021/01/01 14:06:58;;;;;;;5.18;4.07;;;10.00;71.30;;;;;;5002129;28;20494;-75